ADDS METAR Data INFO
IDs: Format: Raw Decoded Include TAF

Data at: 0857 UTC 19 Jun 2018

KOGA 190835Z AUTO 36007KT 10SM SCT050 SCT060 OVC110 17/16 A3004 RMK AO2 LTG DSNT SE T01700160
KOGA 190815Z AUTO 35007KT 10SM -DZ BKN085 OVC110 17/16 A3008 RMK AO2 T01720164
KOGA 190755Z AUTO 04006KT 10SM -VCTSRA SCT080 OVC110 17/17 A3007 RMK AO2 P0004 T01720165
KOGA 190735Z AUTO 01008KT 10SM -RA BKN080 OVC120 17/17 A3010 RMK AO2 LTG DSNT E AND SE P0003 T01730166
KOGA 190715Z AUTO 36006KT 10SM TSRA BKN080 OVC120 18/17 A3011 RMK AO2 LTG DSNT E SE AND W P0001 T01750166
KOGA 190655Z AUTO 35004KT 10SM RA SCT080 OVC110 18/17 A3012 RMK AO2 LTG DSNT ALQS P0008 T01760168 402340157
KOGA 190635Z AUTO 35006KT 10SM -VCTSRA SCT060 SCT080 OVC110 18/17 A3009 RMK AO2 LTG DSNT ALQS P0007 T01800171
KOGA 190615Z AUTO 36010KT 10SM /VCTSRA SCT060 SCT070 OVC095 18/17 A3010 RMK AO2 LTG DSNT ALQS P0003 T01830173
KOGA 190555Z AUTO 05004KT 7SM -TSRA SCT050 BKN095 OVC120 18/17 A3008 RMK AO2 LTG DSNT ALQS P0014 60014 T01820172 10231 20182
KOGA 190535Z AUTO 03011KT 7SM +TSRA SCT023 SCT041 OVC095 19/17 A3007 RMK AO2 LTG DSNT ALQS P0007 T01850172
KOGA 190515Z AUTO 36012G16KT 7SM DZ BKN021 BKN033 OVC075 19/17 A3007 RMK AO2 LTG DSNT SW THRU N T01930170
KOGA 190455Z AUTO 30012G16KT 10SM BKN019 OVC024 21/17 A3012 RMK AO2 LTG DSNT SW THRU NW T02050170
KOGA 190435Z AUTO 34009KT 10SM OVC024 20/17 A3007 RMK AO2 LTG DSNT W AND NW T02040165
KOGA 190415Z AUTO 04007KT 10SM OVC026 21/17 A3004 RMK AO2 LTG DSNT SW AND NW T02070170
KOGA 190355Z AUTO 05007KT 10SM OVC028 21/17 A3002 RMK AO2 LTG DSNT SW AND NW T02070171
KOGA 190335Z AUTO 05009KT 10SM OVC028 21/17 A3001 RMK AO2 LTG DSNT SW T02100171
KOGA 190315Z AUTO 04008KT 10SM OVC026 21/18 A3001 RMK AO2 T02110175
KOGA 190255Z AUTO 03005KT 7SM OVC024 21/18 A3002 RMK AO2 T02060178
KOGA 190235Z AUTO 00000KT 10SM BKN024 20/18 A3001 RMK AO2 T02000175
KOGA 190215Z AUTO 05005KT 10SM CLR 20/17 A3000 RMK AO2 LTG DSNT W T02000172
KOGA 190155Z AUTO 04005KT 10SM CLR 21/17 A3000 RMK AO2 T02110170
KOGA 190135Z AUTO 06003KT 10SM CLR 22/17 A3000 RMK AO2 T02190168
KOGA 190115Z AUTO 04005KT 10SM CLR 22/17 A2999 RMK AO2 T02220165
KOGA 190055Z AUTO 04003KT 10SM CLR 23/17 A2998 RMK AO2 T02260165
KOGA 190035Z AUTO 07004KT 10SM SCT023 23/16 A2998 RMK AO2 T02250164
KOGA 190015Z AUTO 04005KT 10SM SCT025 23/16 A2998 RMK AO2 T02300164
KOGA 182355Z AUTO 03003KT 10SM BKN025 23/16 A2998 RMK AO2 T02280164 10234 20191
KOGA 182335Z AUTO 02005KT 10SM BKN025 23/17 A2998 RMK AO2 T02330166
KOGA 182315Z AUTO 00000KT 10SM BKN025 23/16 A2998 RMK AO2 T02280160
KOGA 182255Z AUTO 00000KT 10SM OVC025 23/16 A2999 RMK AO2 T02280161
KOGA 182235Z AUTO 07004KT 10SM OVC025 22/16 A3000 RMK AO2 T02230161
KOGA 182215Z AUTO 36003KT 10SM OVC025 23/16 A3000 RMK AO2 T02250161
KOGA 182155Z AUTO 04003KT 10SM OVC027 22/16 A3001 RMK AO2 T02210159
KOGA 182135Z AUTO 35003KT 10SM OVC027 22/16 A3002 RMK AO2 T02200159
KOGA 182115Z AUTO 01004KT 10SM OVC025 22/16 A3002 RMK AO2 T02200159
KOGA 182055Z AUTO 02006KT 10SM OVC022 22/16 A3003 RMK AO2 T02170161
KOGA 182035Z AUTO 02004KT 10SM BKN022 OVC029 22/16 A3003 RMK AO2 LTG DSNT NE T02170162
KOGA 182015Z AUTO 01006KT 10SM OVC022 22/16 A3003 RMK AO2 T02160163
KOGA 181955Z AUTO 35006KT 10SM OVC019 21/16 A3003 RMK AO2 T02130161
KOGA 181935Z AUTO 34008KT 10SM OVC017 21/16 A3003 RMK AO2 T02090161
KOGA 181915Z AUTO 33005KT 10SM OVC015 21/16 A3002 RMK AO2 T02060162
KOGA 181855Z AUTO 35004KT 10SM OVC015 20/16 A3002 RMK AO2 T02010162
KOGA 181835Z AUTO 33004KT 10SM OVC013 20/16 A3002 RMK AO2 T01960163
KOGA 181815Z AUTO 35003KT 10SM OVC013 20/16 A3002 RMK AO2 T01950162
KOGA 181755Z AUTO 01006KT 10SM OVC011 19/17 A3003 RMK AO2 T01900166 10190 20157
KOGA 181735Z AUTO 02006KT 10SM OVC011 19/16 A3003 RMK AO2 LTG DSNT N T01850163
KOGA 181715Z AUTO 36004KT 10SM OVC011 18/16 A3004 RMK AO2 T01830161
KOGA 181655Z AUTO 36008KT 7SM OVC007 18/17 A3004 RMK AO2 T01750165
KOGA 181635Z AUTO 34006KT 4SM BR OVC007 17/17 A3004 RMK AO2 T01710165
KOGA 181615Z AUTO 33007KT 2 1/2SM BR OVC007 17/16 A3004 RMK AO2 VIS 1 3/4V4 LTG DSNT N T01690162
KOGA 181555Z AUTO 35007KT 7SM OVC007 17/16 A3003 RMK AO2 T01670159
KOGA 181535Z AUTO 36007KT 7SM OVC007 17/16 A3002 RMK AO2 T01700161
KOGA 181515Z AUTO 36006KT 10SM OVC007 17/16 A3002 RMK AO2 T01650158
KOGA 181455Z AUTO 34006KT 4SM BR OVC005 17/16 A3004 RMK AO2 T01650160
KOGA 181435Z AUTO 35005KT 10SM OVC005 16/16 A3004 RMK AO2 T01630157
KOGA 181415Z AUTO 36005KT 10SM OVC005 16/16 A3002 RMK AO2 T01620157
KOGA 181355Z AUTO 01004KT 10SM OVC005 16/16 A3003 RMK AO2 T01610156
KOGA 181335Z AUTO 03006KT 10SM OVC005 16/16 A3003 RMK AO2 T01600155
KOGA 181315Z AUTO 01006KT 5SM BR OVC005 16/16 A3001 RMK AO2 T01590155
KOGA 181255Z AUTO 04005KT 4SM BR OVC005 16/16 A3001 RMK AO2 T01600155
KOGA 181235Z AUTO 03007KT 2 1/2SM BR OVC005 16/16 A3001 RMK AO2 T01580155
KOGA 181215Z AUTO 03004KT 4SM BR OVC005 16/15 A3002 RMK AO2 T01580153
KOGA 181155Z AUTO 04007KT 10SM OVC005 16/15 A3001 RMK AO2 70004 T01570152 10161 20157
KOGA 181135Z AUTO 04008KT 10SM OVC005 16/15 A3000 RMK AO2 T01570152
KOGA 181115Z AUTO 04010KT 10SM OVC005 16/15 A2999 RMK AO2 T01580152
KOGA 181055Z AUTO 02006KT 10SM OVC005 16/15 A3000 RMK AO2 T01580153
KOGA 181035Z AUTO 04013KT 10SM OVC005 16/15 A2999 RMK AO2 T01590153
KOGA 181015Z AUTO 03006KT 10SM OVC005 16/15 A3000 RMK AO2 T01600153
KOGA 180955Z AUTO 03009KT 10SM OVC007 16/15 A3001 RMK AO2 T01600153
KOGA 180935Z AUTO 02009KT 10SM OVC007 16/15 A3000 RMK AO2 T01590152
KOGA 180915Z AUTO 02007KT 10SM OVC007 16/15 A3001 RMK AO2 T01600152
KOGA 180855Z AUTO 04007KT 10SM OVC007 16/15 A3001 RMK AO2 T01600152
KOGA 180835Z AUTO 03009KT 10SM OVC007 16/15 A2999 RMK AO2 T01600152
KOGA 180815Z AUTO 02007KT 10SM OVC007 16/15 A2999 RMK AO2 T01600152
KOGA 180755Z AUTO 04009KT 10SM OVC007 16/15 A2999 RMK AO2 T01600152
KOGA 180735Z AUTO 03006KT 10SM OVC007 16/15 A2999 RMK AO2 T01600152
KOGA 180715Z AUTO 02004KT 10SM OVC007 16/15 A2999 RMK AO2 T01600153
KOGA 180655Z AUTO 05008KT 10SM -RA OVC007 16/15 A2998 RMK AO2 P0008 T01600152 402910160
KOGA 180635Z AUTO 06005KT 10SM -RA OVC005 16/15 A2999 RMK AO2 LTG DSNT W P0004 T01600153
KOGA 180615Z AUTO 06005KT 10SM OVC007 16/16 A2998 RMK AO2 P0004 T01600155
KOGA 180555Z AUTO 06009KT 10SM OVC007 16/15 A2998 RMK AO2 P0001 60002 T01600153 10209 20160
KOGA 180535Z AUTO 05010KT 10SM -RA BKN007 BKN012 OVC120 16/16 A2999 RMK AO2 P0001 T01600155
KOGA 180515Z AUTO 04009KT 10SM RA SCT009 BKN020 BKN034 16/15 A2999 RMK AO2 LTG DSNT W P0001 T01600152
KOGA 180455Z AUTO 04008KT 10SM -RA BKN011 OVC020 16/15 A3000 RMK AO2 P0007 T01600152
KOGA 180435Z AUTO 04009KT 10SM RA OVC011 16/15 A3001 RMK AO2 P0005 T01600151
KOGA 180415Z AUTO 02003KT 7SM RA BKN011 BKN022 OVC065 16/15 A3002 RMK AO2 LTG DSNT E P0003 T01600152
KOGA 180355Z AUTO 01012G17KT 7SM RA BKN011 BKN029 OVC100 16/15 A2998 RMK AO2 LTG DSNT SE P0009 T01610152
KOGA 180335Z AUTO 01010G15KT 10SM RA BKN011 BKN080 OVC100 17/16 A2997 RMK AO2 LTG DSNT NE P0004 T01650155
KOGA 180315Z AUTO 02013KT 10SM -RA SCT008 SCT022 BKN090 17/16 A2996 RMK AO2 LTG DSNT NE T01650156
KOGA 180255Z AUTO 01015G25KT 10SM -RA SCT010 SCT070 OVC120 17/16 A2994 RMK AO2 LTG DSNT S AND W P0007 60007 T01650156
KOGA 180235Z AUTO 36017G21KT 7SM -VCTSRA OVC008 17/16 A2994 RMK AO2 LTG DSNT W THRU NE P0006 T01670158
KOGA 180215Z AUTO 36010G17KT 10SM -RA BKN008 OVC013 17/16 A2998 RMK AO2 LTG DSNT ALQS T01720163
KOGA 180155Z AUTO 01015G23KT 10SM -RA OVC010 18/17 A2993 RMK AO2 LTG DSNT ALQS P0004 T01760167
KOGA 180135Z AUTO 01019G23KT 10SM OVC008 19/17 A2993 RMK AO2 LTG DSNT ALQS T01850173
KOGA 180115Z AUTO 02019G22KT 10SM BKN008 OVC025 19/18 A2991 RMK AO2 LTG DSNT NE THRU S T01900180
KOGA 180055Z AUTO 01024G28KT 7SM -RA BKN010 BKN021 OVC110 19/18 A2984 RMK AO2 LTG DSNT NE AND E P0029 T01920181
KOGA 180035Z AUTO 03017G21KT 10SM TSRA BKN012 BKN070 OVC110 20/19 A2989 RMK AO2 LTG DSNT ALQS P0025 T01980185
KOGA 180015Z AUTO 01025G30KT 3/4SM VCTSRA OVC012 20/19 A2985 RMK AO2 LTG DSNT ALQS P0024 T01970185
KOGA 172355Z AUTO 02015G20KT 7SM VCTSRA SCT012 BKN049 OVC095 21/19 A2986 RMK AO2 LTG DSNT ALQS P0001 60001 T02120193 10291 20212
KOGA 172335Z AUTO 01018G22KT 10SM SCT012 BKN085 OVC110 23/19 A2984 RMK AO2 LTG DSNT SW T02280193
KOGA 172315Z AUTO 01016G23KT 10SM -RA SCT075 SCT090 BKN120 24/20 A2983 RMK AO2 LTG DSNT SW T02350196
KOGA 172255Z AUTO 01012G16KT 10SM SCT070 24/18 A2983 RMK AO2 LTG DSNT E T02400180
KOGA 172235Z AUTO 01014KT 10SM SCT060 SCT070 26/18 A2982 RMK AO2 LTG DSNT N AND NE T02560177
KOGA 172215Z AUTO 36014G19KT 10SM SCT050 SCT100 SCT110 25/18 A2984 RMK AO2 LTG DSNT NE T02490175
KOGA 172155Z AUTO 01015G23KT 10SM TS SCT038 BKN050 BKN090 23/17 A2984 RMK AO2 LTG DSNT N AND NE T02250174
KOGA 172135Z AUTO 36013G31KT 10SM VCTS BKN038 BKN045 OVC050 22/17 A2985 RMK AO2 LTG DSNT NW THRU NE T02210173
KOGA 172115Z AUTO 25012G21KT 170V270 10SM TS BKN043 BKN049 OVC060 28/19 A2985 RMK AO2 LTG DSNT NW THRU NE T02820191